Time;durP1;ratioP1;P1;durP2;ratioP2;P2;SDS_P1;SDS_P2;PMS_P1;PMS_P2;Temp;Humidity;BMP_temperature;BMP_pressure;BME280_temperature;BME280_humidity;BME280_pressure;Samples;Min_cycle;Max_cycle;Signal;HPM_P1;HPM_P2
2023/06/05 00:02:15;;;;;;;4.00;3.70;;;18.10;99.90;;;;;;6324497;28;20670;-69
2023/06/05 00:05:19;;;;;;;4.20;3.30;;;18.10;99.90;;;;;;6318667;28;20238;-69
2023/06/05 00:08:22;;;;;;;4.13;3.63;;;18.10;99.90;;;;;;6323997;28;20240;-69
2023/06/05 00:11:26;;;;;;;4.20;3.80;;;18.10;99.90;;;;;;6323967;28;20226;-69
2023/06/05 00:14:30;;;;;;;4.80;3.53;;;18.00;99.90;;;;;;6324617;28;20530;-69
2023/06/05 00:17:34;;;;;;;3.70;3.40;;;18.00;99.90;;;;;;6348055;28;20198;-69
2023/06/05 00:20:38;;;;;;;3.63;3.33;;;18.00;99.90;;;;;;6323697;28;20218;-69
2023/06/05 00:23:41;;;;;;;3.73;3.53;;;18.00;99.90;;;;;;6324172;28;20199;-69
2023/06/05 00:26:44;;;;;;;4.20;3.80;;;18.00;99.90;;;;;;6323363;28;20448;-69
2023/06/05 00:29:47;;;;;;;4.20;3.80;;;18.00;99.90;;;;;;6323999;28;20672;-69
2023/06/05 00:32:52;;;;;;;3.80;3.47;;;18.00;99.90;;;;;;6323790;28;20558;-69
2023/06/05 00:35:55;;;;;;;3.90;3.60;;;18.00;99.90;;;;;;6324139;28;20222;-69
2023/06/05 00:38:58;;;;;;;4.10;3.77;;;18.00;99.90;;;;;;6323772;28;20226;-68
2023/06/05 00:42:02;;;;;;;4.70;3.77;;;18.00;99.90;;;;;;6323820;28;20642;-70
2023/06/05 00:45:06;;;;;;;4.73;3.43;;;18.00;99.90;;;;;;6323069;28;20321;-69
2023/06/05 00:48:11;;;;;;;4.03;3.63;;;18.00;99.90;;;;;;6323948;28;20258;-69
2023/06/05 00:51:15;;;;;;;4.53;3.77;;;17.90;99.90;;;;;;6324437;28;20234;-69
2023/06/05 00:54:20;;;;;;;3.70;3.40;;;17.90;99.90;;;;;;6328417;28;20240;-69
2023/06/05 00:57:24;;;;;;;3.90;3.60;;;17.90;99.90;;;;;;6342947;28;20237;-69
2023/06/05 01:00:28;;;;;;;4.63;4.33;;;18.00;99.90;;;;;;6332754;28;20244;-69
2023/06/05 01:03:34;;;;;;;4.30;3.90;;;18.00;99.90;;;;;;6328367;28;20236;-69
2023/06/05 01:06:40;;;;;;;4.07;3.77;;;18.00;99.90;;;;;;6327956;28;20662;-69
2023/06/05 01:09:44;;;;;;;6.00;4.00;;;18.00;99.90;;;;;;6327592;28;20321;-69
2023/06/05 01:12:54;;;;;;;3.97;3.67;;;17.90;99.90;;;;;;6328038;28;20226;-69
2023/06/05 01:15:58;;;;;;;6.73;4.60;;;17.90;99.90;;;;;;6327931;28;20275;-69
2023/06/05 01:19:04;;;;;;;4.70;4.30;;;17.90;99.90;;;;;;6327564;28;20232;-69
2023/06/05 01:22:08;;;;;;;14.03;5.00;;;17.90;99.90;;;;;;6328044;28;20233;-69
2023/06/05 01:25:12;;;;;;;4.47;4.10;;;17.90;99.90;;;;;;6328117;28;20226;-69
2023/06/05 01:28:18;;;;;;;4.80;4.40;;;17.90;99.90;;;;;;6330787;28;20230;-69
2023/06/05 01:31:23;;;;;;;5.00;4.63;;;17.90;99.90;;;;;;6329402;28;20241;-69
2023/06/05 01:34:28;;;;;;;5.47;4.60;;;17.90;99.90;;;;;;6327560;28;20690;-69
2023/06/05 01:37:36;;;;;;;5.37;4.87;;;17.90;99.90;;;;;;6327321;28;20234;-69
2023/06/05 01:40:41;;;;;;;4.60;4.20;;;17.90;99.90;;;;;;6327139;28;20245;-69
2023/06/05 01:43:47;;;;;;;4.93;4.53;;;17.80;99.90;;;;;;6326606;28;20655;-69
2023/06/05 01:46:50;;;;;;;4.57;4.17;;;17.80;99.90;;;;;;6326854;28;20280;-69
2023/06/05 01:49:54;;;;;;;5.67;5.17;;;17.80;99.90;;;;;;6326439;28;20476;-69
2023/06/05 01:53:01;;;;;;;5.50;4.70;;;17.80;99.90;;;;;;6327015;28;20464;-69
2023/06/05 01:56:08;;;;;;;6.13;4.50;;;17.80;99.90;;;;;;6326412;28;20603;-69
2023/06/05 01:59:11;;;;;;;4.80;4.40;;;17.70;99.90;;;;;;6326493;28;20472;-69
2023/06/05 02:02:16;;;;;;;4.97;4.47;;;17.80;99.90;;;;;;6326664;28;20226;-69
2023/06/05 02:05:20;;;;;;;6.90;5.00;;;17.80;99.90;;;;;;6326659;28;20538;-69
2023/06/05 02:08:24;;;;;;;4.90;4.40;;;17.80;99.90;;;;;;6326662;28;20315;-69
2023/06/05 02:11:29;;;;;;;6.73;5.00;;;17.80;99.90;;;;;;6325415;28;20472;-69
2023/06/05 02:14:35;;;;;;;5.70;4.30;;;17.90;99.90;;;;;;6325976;28;20521;-69
2023/06/05 02:17:38;;;;;;;4.50;4.17;;;17.90;99.90;;;;;;6324411;28;20198;-69
2023/06/05 02:20:42;;;;;;;4.40;4.10;;;17.90;99.90;;;;;;6325018;28;20691;-69
2023/06/05 02:23:45;;;;;;;5.47;4.50;;;17.90;99.90;;;;;;6329913;28;20836;-69
2023/06/05 02:26:50;;;;;;;5.00;4.37;;;17.90;99.90;;;;;;6331699;28;20456;-69
2023/06/05 02:29:53;;;;;;;5.00;4.63;;;18.00;99.90;;;;;;6326080;28;20803;-69
2023/06/05 02:33:00;;;;;;;6.67;4.90;;;17.90;99.90;;;;;;6326931;28;20460;-70
2023/06/05 02:36:04;;;;;;;6.30;4.53;;;17.90;99.90;;;;;;6326036;28;20222;-70
2023/06/05 02:39:07;;;;;;;4.87;4.47;;;17.90;99.90;;;;;;6326019;28;20317;-69
2023/06/05 02:42:12;;;;;;;5.43;4.60;;;17.90;99.90;;;;;;6325621;28;20236;-70
2023/06/05 02:45:15;;;;;;;8.10;5.77;;;18.00;99.90;;;;;;6325402;28;20240;-70
2023/06/05 02:48:18;;;;;;;5.33;4.83;;;18.00;99.90;;;;;;6325443;28;20233;-69
2023/06/05 02:51:22;;;;;;;5.17;4.70;;;18.00;99.90;;;;;;6325196;28;20230;-70
2023/06/05 02:54:28;;;;;;;7.40;5.20;;;17.90;99.90;;;;;;6324461;28;20238;-70
2023/06/05 02:57:33;;;;;;;5.93;5.33;;;17.90;99.90;;;;;;6325095;28;20573;-70
2023/06/05 03:00:37;;;;;;;5.43;4.80;;;18.00;99.90;;;;;;6325083;28;20479;-69
2023/06/05 03:03:40;;;;;;;5.90;5.40;;;17.90;99.90;;;;;;6325388;28;20672;-69
2023/06/05 03:06:44;;;;;;;5.60;5.10;;;17.90;99.90;;;;;;6324651;28;20253;-70
2023/06/05 03:09:47;;;;;;;6.43;5.47;;;17.90;99.90;;;;;;6324690;28;20622;-69
2023/06/05 03:12:52;;;;;;;5.60;5.10;;;17.90;99.90;;;;;;6324720;28;20829;-70
2023/06/05 03:15:57;;;;;;;5.13;4.63;;;17.90;99.90;;;;;;6324754;28;20226;-70
2023/06/05 03:19:00;;;;;;;7.10;5.33;;;18.00;99.90;;;;;;6325301;28;20468;-69
2023/06/05 03:22:05;;;;;;;6.33;5.73;;;17.90;99.90;;;;;;6329396;28;20464;-69
2023/06/05 03:25:09;;;;;;;8.63;5.43;;;18.00;99.90;;;;;;6340830;28;20259;-69
2023/06/05 03:28:14;;;;;;;5.20;4.73;;;18.00;99.90;;;;;;6331238;28;20301;-69
2023/06/05 03:31:17;;;;;;;5.70;5.20;;;17.90;99.90;;;;;;6324856;28;20693;-69
2023/06/05 03:34:22;;;;;;;4.63;4.23;;;17.90;99.90;;;;;;6324928;28;20483;-69
2023/06/05 03:37:25;;;;;;;5.40;4.97;;;17.90;99.90;;;;;;6324295;28;20469;-69
2023/06/05 03:40:28;;;;;;;6.23;5.63;;;17.90;99.90;;;;;;6324641;28;20476;-69
2023/06/05 03:43:33;;;;;;;6.63;4.70;;;17.90;99.90;;;;;;6323945;28;20495;-70
2023/06/05 03:46:37;;;;;;;6.27;5.67;;;17.90;99.90;;;;;;6324549;28;20539;-69
2023/06/05 03:49:47;;;;;;;6.80;6.10;;;18.00;99.90;;;;;;6324381;28;20476;-69
2023/06/05 03:52:52;;;;;;;6.13;5.60;;;18.00;99.90;;;;;;6325461;28;20472;-69
2023/06/05 03:55:56;;;;;;;5.30;4.90;;;18.00;99.90;;;;;;6329413;28;20658;-70
2023/06/05 03:59:08;;;;;;;5.13;4.73;;;17.90;99.90;;;;;;6326065;28;21024;-69
2023/06/05 04:02:11;;;;;;;5.70;5.20;;;18.00;99.90;;;;;;6325017;28;20500;-69
2023/06/05 04:05:15;;;;;;;6.40;5.90;;;18.00;99.90;;;;;;6324111;28;20236;-69
2023/06/05 04:08:18;;;;;;;6.50;5.90;;;18.00;99.90;;;;;;6324423;28;20471;-69
2023/06/05 04:11:22;;;;;;;6.00;5.27;;;18.00;99.90;;;;;;6324116;28;20261;-67
2023/06/05 04:14:26;;;;;;;6.57;5.70;;;18.00;99.90;;;;;;6323645;28;20685;-67
2023/06/05 04:17:30;;;;;;;5.50;5.00;;;18.10;99.90;;;;;;6323916;28;20279;-64
2023/06/05 04:20:33;;;;;;;5.63;5.13;;;18.10;99.90;;;;;;6347735;28;20227;-65
2023/06/05 04:23:36;;;;;;;6.73;5.53;;;18.10;99.90;;;;;;6323840;28;20206;-65
2023/06/05 04:26:41;;;;;;;6.13;5.30;;;18.10;99.90;;;;;;6324942;28;20553;-64
2023/06/05 04:29:46;;;;;;;5.60;5.00;;;18.10;99.90;;;;;;6328585;28;20460;-65
2023/06/05 04:32:54;;;;;;;6.10;5.50;;;18.10;99.90;;;;;;6328322;28;20780;-64
2023/06/05 04:36:00;;;;;;;6.03;5.50;;;18.20;99.90;;;;;;6328790;28;20557;-64
2023/06/05 04:39:06;;;;;;;5.57;4.93;;;18.20;99.90;;;;;;6327988;28;20313;-65
2023/06/05 04:42:10;;;;;;;7.37;6.73;;;18.30;99.90;;;;;;6328269;28;20225;-64
2023/06/05 04:45:19;;;;;;;8.07;6.70;;;18.30;99.90;;;;;;6328533;28;20643;-64
2023/06/05 04:48:22;;;;;;;6.80;5.43;;;18.40;99.90;;;;;;6328567;28;20472;-65
2023/06/05 04:51:25;;;;;;;6.43;5.83;;;18.40;99.90;;;;;;6327817;28;20230;-65
2023/06/05 04:54:28;;;;;;;6.13;5.50;;;18.40;99.90;;;;;;6328174;28;20680;-65
2023/06/05 04:57:31;;;;;;;5.77;5.20;;;18.50;99.90;;;;;;6327932;28;20232;-65
2023/06/05 05:00:36;;;;;;;6.00;5.50;;;18.60;99.90;;;;;;6328198;28;20293;-65
2023/06/05 05:03:42;;;;;;;6.83;6.13;;;18.60;99.90;;;;;;6328295;28;20222;-65
2023/06/05 05:06:47;;;;;;;6.00;5.40;;;18.60;99.90;;;;;;6327950;28;20226;-65
2023/06/05 05:09:50;;;;;;;6.77;5.87;;;18.70;99.90;;;;;;6327369;28;20234;-65
2023/06/05 05:12:53;;;;;;;5.77;5.27;;;18.70;99.90;;;;;;6327329;28;20250;-65
2023/06/05 05:15:58;;;;;;;6.60;6.00;;;18.70;99.90;;;;;;6327178;28;20230;-65
2023/06/05 05:19:01;;;;;;;6.37;5.73;;;18.70;99.90;;;;;;6322452;28;20629;-65
2023/06/05 05:22:05;;;;;;;5.27;4.53;;;18.60;99.90;;;;;;6327162;28;20230;-65
2023/06/05 05:25:08;;;;;;;7.90;6.10;;;18.70;99.90;;;;;;6327075;28;20240;-65
2023/06/05 05:28:12;;;;;;;5.77;5.33;;;18.70;99.90;;;;;;6327188;28;20252;-65
2023/06/05 05:31:17;;;;;;;8.53;5.67;;;18.70;99.90;;;;;;6326755;28;20242;-65
2023/06/05 05:34:22;;;;;;;6.23;5.73;;;18.70;99.90;;;;;;6326860;28;20305;-64
2023/06/05 05:37:26;;;;;;;6.47;5.97;;;18.70;99.90;;;;;;6326430;28;20226;-65
2023/06/05 05:40:29;;;;;;;7.50;6.67;;;18.80;99.90;;;;;;6327042;28;20320;-64
2023/06/05 05:43:32;;;;;;;6.10;5.50;;;18.80;99.90;;;;;;6327108;28;20317;-64
2023/06/05 05:46:36;;;;;;;5.97;5.40;;;18.80;99.90;;;;;;6327925;28;20230;-64
2023/06/05 05:49:40;;;;;;;6.60;5.53;;;18.80;99.90;;;;;;6327477;28;20252;-65
2023/06/05 05:52:44;;;;;;;6.30;5.70;;;18.90;99.90;;;;;;6326806;28;20305;-65
2023/06/05 05:55:47;;;;;;;7.83;7.13;;;19.00;99.90;;;;;;6326412;28;20226;-65
2023/06/05 05:58:51;;;;;;;6.67;5.83;;;18.90;99.90;;;;;;6326398;28;20236;-65
2023/06/05 06:01:56;;;;;;;5.90;5.40;;;18.80;99.90;;;;;;6326475;28;20699;-65
2023/06/05 06:05:02;;;;;;;6.30;5.70;;;18.80;99.90;;;;;;6326368;28;20267;-64
2023/06/05 06:08:06;;;;;;;10.40;6.50;;;18.90;99.90;;;;;;6326076;28;20226;-65
2023/06/05 06:11:09;;;;;;;6.97;6.33;;;18.90;99.90;;;;;;6326064;28;20237;-64
2023/06/05 06:14:13;;;;;;;8.70;6.70;;;19.00;99.90;;;;;;6325944;28;20255;-64
2023/06/05 06:17:17;;;;;;;7.77;6.67;;;19.00;99.90;;;;;;6326275;28;20241;-64
2023/06/05 06:20:22;;;;;;;6.40;5.80;;;19.00;99.90;;;;;;6326386;28;20230;-64
2023/06/05 06:23:25;;;;;;;6.37;5.53;;;19.10;99.90;;;;;;6325824;28;20325;-64
2023/06/05 06:26:28;;;;;;;8.70;6.20;;;19.10;99.90;;;;;;6316413;28;20225;-64
2023/06/05 06:29:32;;;;;;;6.50;5.90;;;19.10;99.90;;;;;;6324052;28;20548;-64
2023/06/05 06:32:36;;;;;;;6.33;5.83;;;19.10;99.90;;;;;;6325676;28;20547;-64
2023/06/05 06:35:42;;;;;;;6.37;5.77;;;19.10;99.90;;;;;;6325682;28;20206;-64
2023/06/05 06:38:45;;;;;;;6.20;5.60;;;19.10;99.90;;;;;;6325823;28;20187;-64
2023/06/05 06:41:48;;;;;;;6.43;5.90;;;19.20;99.90;;;;;;6325476;28;20737;-64
2023/06/05 06:44:55;;;;;;;9.23;6.07;;;19.30;99.90;;;;;;6325631;28;20229;-66
2023/06/05 06:48:00;;;;;;;6.43;5.83;;;19.40;99.90;;;;;;6325836;28;20670;-67
2023/06/05 06:51:06;;;;;;;6.40;5.70;;;19.40;99.90;;;;;;6324372;28;20222;-66
2023/06/05 06:54:10;;;;;;;7.20;6.53;;;19.40;99.90;;;;;;6325296;28;20743;-66
2023/06/05 06:57:13;;;;;;;7.40;6.00;;;19.50;99.90;;;;;;6325465;28;20240;-66
2023/06/05 07:00:16;;;;;;;8.93;6.00;;;19.50;99.90;;;;;;6325456;28;20230;-66
2023/06/05 07:03:23;;;;;;;8.30;7.10;;;19.50;99.90;;;;;;6324880;28;20332;-66
2023/06/05 07:06:27;;;;;;;7.70;6.30;;;19.50;99.90;;;;;;6324967;28;20230;-66
2023/06/05 07:09:30;;;;;;;7.57;6.60;;;19.30;99.90;;;;;;6325069;28;20230;-66
2023/06/05 07:12:34;;;;;;;7.27;6.57;;;19.30;99.90;;;;;;6324781;28;20229;-66
2023/06/05 07:15:37;;;;;;;7.53;6.67;;;19.30;99.90;;;;;;6325126;28;20241;-66
2023/06/05 07:18:42;;;;;;;8.53;6.63;;;19.30;99.90;;;;;;6324955;28;20238;-66
2023/06/05 07:21:45;;;;;;;7.47;6.30;;;19.20;99.90;;;;;;6325012;28;20230;-66
2023/06/05 07:24:49;;;;;;;7.37;6.50;;;19.10;99.90;;;;;;6325097;28;20230;-67
2023/06/05 07:27:52;;;;;;;7.33;6.73;;;19.00;99.90;;;;;;6315628;28;20363;-65
2023/06/05 07:30:55;;;;;;;7.50;6.80;;;18.80;99.90;;;;;;6323540;28;20226;-66
2023/06/05 07:34:00;;;;;;;6.77;6.17;;;18.70;99.90;;;;;;6323721;28;20680;-66
2023/06/05 07:37:03;;;;;;;8.27;7.53;;;18.70;99.90;;;;;;6320937;28;20371;-65
2023/06/05 07:40:10;;;;;;;7.17;6.53;;;18.40;99.90;;;;;;6324017;28;20267;-65
2023/06/05 07:43:14;;;;;;;8.17;7.37;;;18.20;99.90;;;;;;6324038;28;20233;-66
2023/06/05 07:46:17;;;;;;;7.57;6.50;;;18.20;99.90;;;;;;6324751;28;20230;-66
2023/06/05 07:49:23;;;;;;;7.33;6.73;;;18.00;99.90;;;;;;6323443;28;20237;-65
2023/06/05 07:52:26;;;;;;;7.00;6.37;;;18.00;99.90;;;;;;6323946;28;20230;-66
2023/06/05 07:55:29;;;;;;;6.20;5.70;;;17.90;99.90;;;;;;6310610;28;20305;-66
2023/06/05 07:58:35;;;;;;;6.50;5.80;;;17.90;99.90;;;;;;6322956;28;20804;-66
2023/06/05 08:01:38;;;;;;;6.93;6.37;;;17.90;99.90;;;;;;6301935;28;20239;-66
2023/06/05 08:04:43;;;;;;;6.60;6.00;;;18.00;99.90;;;;;;6320024;28;20230;-67
2023/06/05 08:07:46;;;;;;;7.00;5.20;;;18.10;99.90;;;;;;6328483;28;20853;-66
2023/06/05 08:10:49;;;;;;;6.90;5.53;;;18.20;99.90;;;;;;6329058;28;20237;-67
2023/06/05 08:13:52;;;;;;;7.00;6.30;;;18.20;99.90;;;;;;6328944;28;20225;-67
2023/06/05 08:16:56;;;;;;;7.17;6.50;;;18.20;99.90;;;;;;6328762;28;20222;-67
2023/06/05 08:20:01;;;;;;;9.67;8.77;;;18.20;99.90;;;;;;6328875;28;20233;-66
2023/06/05 08:23:05;;;;;;;8.10;7.40;;;18.00;99.90;;;;;;6328262;28;21011;-68
2023/06/05 08:26:11;;;;;;;7.87;6.90;;;17.90;99.90;;;;;;6328713;28;20788;-65
2023/06/05 08:29:14;;;;;;;7.27;6.67;;;17.90;99.90;;;;;;6320794;28;20480;-67
2023/06/05 08:32:18;;;;;;;7.70;7.00;;;17.90;99.90;;;;;;6298814;28;20477;-65
2023/06/05 08:35:23;;;;;;;7.40;6.70;;;18.00;99.90;;;;;;6302726;28;20480;-71
2023/06/05 08:38:26;;;;;;;7.30;6.50;;;18.00;99.90;;;;;;6303016;28;20487;-66
2023/06/05 08:41:31;;;;;;;8.43;7.73;;;18.00;99.90;;;;;;6302580;28;20235;-65
2023/06/05 08:44:35;;;;;;;8.00;7.20;;;18.00;99.90;;;;;;6302598;28;20473;-67
2023/06/05 08:47:45;;;;;;;7.73;7.13;;;18.10;99.90;;;;;;6302632;28;20202;-68
2023/06/05 08:50:50;;;;;;;8.00;7.27;;;18.10;99.90;;;;;;6312237;28;20241;-67
2023/06/05 08:53:58;;;;;;;8.73;7.73;;;18.10;99.90;;;;;;6327900;28;20734;-67
2023/06/05 08:57:02;;;;;;;8.07;7.33;;;18.10;99.90;;;;;;6345087;28;20456;-69
2023/06/05 09:00:10;;;;;;;9.83;8.37;;;18.00;99.90;;;;;;6338089;28;20229;-70
2023/06/05 09:03:14;;;;;;;7.47;6.87;;;18.00;99.90;;;;;;6328112;28;20237;-64
2023/06/05 09:06:20;;;;;;;7.50;6.90;;;18.10;99.90;;;;;;6327850;28;20374;-67
2023/06/05 09:09:23;;;;;;;9.53;8.70;;;18.20;99.90;;;;;;6326685;28;20319;-67
2023/06/05 09:12:27;;;;;;;7.43;6.60;;;18.30;99.90;;;;;;6326487;28;20666;-67
2023/06/05 09:15:31;;;;;;;8.73;8.03;;;18.40;99.90;;;;;;6327727;28;20268;-66
2023/06/05 09:18:36;;;;;;;8.53;7.83;;;18.60;99.90;;;;;;6326995;28;20682;-67
2023/06/05 09:21:52;;;;;;;7.90;7.20;;;18.80;99.90;;;;;;6326729;28;20226;-66
2023/06/05 09:25:01;;;;;;;7.17;6.57;;;18.90;99.90;;;;;;6325531;28;20309;-66
2023/06/05 09:28:07;;;;;;;7.47;6.77;;;18.90;99.90;;;;;;6327408;28;20237;-68
2023/06/05 09:31:12;;;;;;;7.80;7.10;;;18.90;99.90;;;;;;6326714;28;20674;-64
2023/06/05 09:34:25;;;;;;;7.53;6.83;;;19.10;99.90;;;;;;6327135;28;20278;-66
2023/06/05 09:37:37;;;;;;;7.50;6.90;;;19.30;99.90;;;;;;6317801;28;20234;-67
2023/06/05 09:40:41;;;;;;;6.63;6.03;;;19.40;99.90;;;;;;6326549;28;20554;-66
2023/06/05 09:43:45;;;;;;;6.80;6.20;;;19.50;99.90;;;;;;6325968;28;20226;-66
2023/06/05 09:46:53;;;;;;;8.20;7.03;;;19.60;99.90;;;;;;6326248;28;20226;-66
2023/06/05 09:49:57;;;;;;;9.83;6.90;;;19.50;99.90;;;;;;6325904;28;20233;-66
2023/06/05 09:53:02;;;;;;;6.50;6.00;;;19.60;99.90;;;;;;6325807;28;20260;-66
2023/06/05 09:56:06;;;;;;;7.07;6.50;;;19.50;99.90;;;;;;6325870;28;20236;-66
2023/06/05 09:59:13;;;;;;;7.40;6.70;;;19.40;99.90;;;;;;6325332;28;20222;-66
2023/06/05 10:02:19;;;;;;;7.10;6.50;;;19.40;99.90;;;;;;6323506;28;20666;-66
2023/06/05 10:05:23;;;;;;;7.70;6.17;;;19.30;99.90;;;;;;6325501;28;20233;-66
2023/06/05 10:08:28;;;;;;;6.33;5.93;;;19.30;99.90;;;;;;6325607;28;20539;-66
2023/06/05 10:11:31;;;;;;;6.73;6.13;;;19.20;99.90;;;;;;6325352;28;20237;-65
2023/06/05 10:14:35;;;;;;;6.00;5.50;;;19.30;99.90;;;;;;6322973;28;20218;-65
2023/06/05 10:17:40;;;;;;;6.93;6.00;;;19.40;99.90;;;;;;6325331;28;20191;-66
2023/06/05 10:20:47;;;;;;;5.70;5.30;;;19.40;99.90;;;;;;6325920;28;20211;-65
2023/06/05 10:23:58;;;;;;;5.70;5.30;;;19.50;99.90;;;;;;6323772;28;20191;-65
2023/06/05 10:27:37;;;;;;;5.73;5.33;;;19.40;99.90;;;;;;6323477;28;20229;-65
2023/06/05 10:31:10;;;;;;;6.17;5.67;;;19.40;99.90;;;;;;6320903;28;20241;-66
2023/06/05 10:34:34;;;;;;;6.33;5.83;;;19.40;99.90;;;;;;6326062;28;20234;-66
2023/06/05 10:37:45;;;;;;;6.70;6.00;;;19.50;99.90;;;;;;6325902;28;20305;-66
2023/06/05 10:40:56;;;;;;;5.93;5.47;;;19.60;99.90;;;;;;6316968;28;20334;-65
2023/06/05 10:43:59;;;;;;;5.57;5.17;;;19.70;99.90;;;;;;6325027;28;20717;-65
2023/06/05 10:47:22;;;;;;;5.37;4.97;;;19.80;99.90;;;;;;6324626;28;20218;-65
2023/06/05 10:50:30;;;;;;;5.43;5.03;;;19.70;99.90;;;;;;6321922;28;20640;-65
2023/06/05 10:53:45;;;;;;;7.00;5.70;;;19.70;99.90;;;;;;6349705;28;20572;-65
2023/06/05 10:56:58;;;;;;;5.23;4.83;;;19.60;99.90;;;;;;6321826;28;20221;-67
2023/06/05 11:00:11;;;;;;;5.80;5.30;;;19.40;99.90;;;;;;6324669;28;20690;-64
2023/06/05 11:03:14;;;;;;;5.30;4.90;;;19.40;99.90;;;;;;6329720;28;20668;-65
2023/06/05 11:06:17;;;;;;;5.07;4.67;;;19.30;99.90;;;;;;6350557;28;20240;-67
2023/06/05 11:09:21;;;;;;;5.83;5.33;;;19.20;99.90;;;;;;6350752;28;20298;-66
2023/06/05 11:12:25;;;;;;;5.70;5.20;;;19.30;99.90;;;;;;6350275;27;20229;-68
2023/06/05 11:15:44;;;;;;;6.93;6.10;;;19.30;99.90;;;;;;6350377;28;20236;-67
2023/06/05 11:18:49;;;;;;;5.90;5.50;;;19.40;99.90;;;;;;6342289;28;20236;-67
2023/06/05 11:22:07;;;;;;;6.10;5.50;;;19.50;99.90;;;;;;6324350;28;20517;-65
2023/06/05 11:25:27;;;;;;;5.93;5.43;;;19.50;99.90;;;;;;6325557;28;20230;-66
2023/06/05 11:28:42;;;;;;;5.30;4.80;;;19.40;99.90;;;;;;6326034;28;20237;-65
2023/06/05 11:31:46;;;;;;;6.13;5.53;;;19.40;99.90;;;;;;6324311;28;20313;-66
2023/06/05 11:34:52;;;;;;;5.73;5.33;;;19.40;99.90;;;;;;6323858;28;20237;-67
2023/06/05 11:38:09;;;;;;;6.77;6.27;;;19.30;99.90;;;;;;6324261;28;20226;-68
2023/06/05 11:41:12;;;;;;;5.37;4.97;;;19.10;99.90;;;;;;6323984;28;20355;-67
2023/06/05 11:44:30;;;;;;;5.27;4.87;;;19.00;99.90;;;;;;6324118;28;20230;-66
2023/06/05 11:47:35;;;;;;;6.47;5.97;;;19.00;99.90;;;;;;6321181;28;20237;-66
2023/06/05 11:50:40;;;;;;;5.90;4.80;;;19.00;99.90;;;;;;6323701;28;20228;-68
2023/06/05 11:53:50;;;;;;;6.00;5.53;;;19.10;99.90;;;;;;6325714;28;20214;-68
2023/06/05 11:56:58;;;;;;;6.33;5.73;;;19.20;99.90;;;;;;6346799;27;20261;-65
2023/06/05 12:00:05;;;;;;;5.73;5.33;;;19.30;99.90;;;;;;6324465;28;20238;-68
2023/06/05 12:03:18;;;;;;;6.77;6.20;;;19.30;99.90;;;;;;6318622;28;20542;-68
2023/06/05 12:06:21;;;;;;;6.70;5.80;;;19.40;99.90;;;;;;6299117;28;20257;-68
2023/06/05 12:09:25;;;;;;;5.30;4.80;;;19.40;99.90;;;;;;6305989;28;20598;-68
2023/06/05 12:12:28;;;;;;;6.27;5.67;;;19.40;99.90;;;;;;6324176;28;20233;-68
2023/06/05 12:15:34;;;;;;;6.13;5.63;;;19.40;99.90;;;;;;6324731;28;20537;-68
2023/06/05 12:18:37;;;;;;;5.80;5.40;;;19.40;99.90;;;;;;6327116;28;20234;-67
2023/06/05 12:21:41;;;;;;;5.70;5.27;;;19.50;99.90;;;;;;6324454;28;20280;-67
2023/06/05 12:24:44;;;;;;;5.30;4.90;;;19.60;99.90;;;;;;6323757;28;20218;-67
2023/06/05 12:27:48;;;;;;;6.30;5.70;;;19.80;99.90;;;;;;6323641;28;20312;-66
2023/06/05 12:30:53;;;;;;;5.50;5.10;;;20.00;99.90;;;;;;6343200;28;20255;-67
2023/06/05 12:33:56;;;;;;;5.67;5.27;;;20.20;99.90;;;;;;6348375;28;20219;-67
2023/06/05 12:36:59;;;;;;;6.37;5.83;;;20.20;99.90;;;;;;6349205;28;20580;-67
2023/06/05 12:40:07;;;;;;;5.30;4.90;;;20.20;99.90;;;;;;6336095;28;20234;-68
2023/06/05 12:43:17;;;;;;;5.60;5.10;;;20.20;99.90;;;;;;6323287;28;20243;-67
2023/06/05 12:46:22;;;;;;;6.80;6.20;;;20.20;99.90;;;;;;6319080;28;20227;-67
2023/06/05 12:49:25;;;;;;;6.67;6.07;;;20.10;99.90;;;;;;6327522;28;20249;-69
2023/06/05 12:52:28;;;;;;;5.60;5.20;;;20.10;99.90;;;;;;6328109;28;20236;-67
2023/06/05 12:55:32;;;;;;;5.43;5.03;;;20.00;99.90;;;;;;6327927;28;20238;-68
2023/06/05 12:58:35;;;;;;;7.63;5.17;;;19.90;99.90;;;;;;6328050;28;20230;-68
2023/06/05 13:01:40;;;;;;;4.90;4.60;;;19.90;99.90;;;;;;6328061;28;20230;-68
2023/06/05 13:04:43;;;;;;;6.13;5.70;;;19.90;99.90;;;;;;6349940;27;20237;-67
2023/06/05 13:07:47;;;;;;;5.60;5.20;;;19.80;99.90;;;;;;6353419;27;20563;-69
2023/06/05 13:10:50;;;;;;;6.10;5.70;;;19.70;99.90;;;;;;6353549;28;20236;-67
2023/06/05 13:13:54;;;;;;;5.77;5.30;;;19.80;99.90;;;;;;6353073;27;20251;-67
2023/06/05 13:16:59;;;;;;;5.57;5.17;;;19.70;99.90;;;;;;6335007;28;20309;-66
2023/06/05 13:20:06;;;;;;;5.87;5.30;;;19.70;99.90;;;;;;6327258;28;20638;-65
2023/06/05 13:23:10;;;;;;;5.50;5.00;;;19.60;99.90;;;;;;6327139;28;20236;-64
2023/06/05 13:26:13;;;;;;;6.67;6.17;;;19.60;99.90;;;;;;6327277;28;20226;-65
2023/06/05 13:29:17;;;;;;;5.47;5.07;;;19.50;99.90;;;;;;6326924;28;20238;-66
2023/06/05 13:32:21;;;;;;;6.60;5.87;;;19.40;99.90;;;;;;6327282;28;20226;-65
2023/06/05 13:35:25;;;;;;;6.50;6.00;;;19.40;99.90;;;;;;6316163;28;20229;-66
2023/06/05 13:38:28;;;;;;;6.17;5.57;;;19.40;99.90;;;;;;6317603;28;20222;-65
2023/06/05 13:41:31;;;;;;;6.03;5.57;;;19.50;99.90;;;;;;6326721;28;20232;-65
2023/06/05 13:44:34;;;;;;;6.70;6.10;;;19.60;99.90;;;;;;6326404;28;20260;-68
2023/06/05 13:47:39;;;;;;;6.27;5.87;;;19.50;99.90;;;;;;6326773;28;20208;-65
2023/06/05 13:50:42;;;;;;;6.57;6.03;;;19.60;99.90;;;;;;6317176;28;20310;-65
2023/06/05 13:53:45;;;;;;;6.23;5.70;;;19.60;99.90;;;;;;6326499;28;20641;-66
2023/06/05 13:56:51;;;;;;;7.80;7.20;;;19.50;99.90;;;;;;6326487;28;20230;-65
2023/06/05 13:59:55;;;;;;;6.60;6.10;;;19.60;99.90;;;;;;6326323;28;20672;-65
2023/06/05 14:03:00;;;;;;;6.23;5.73;;;19.70;99.90;;;;;;6326526;28;20324;-65
2023/06/05 14:06:05;;;;;;;7.03;6.53;;;19.60;99.90;;;;;;6327041;28;20226;-65
2023/06/05 14:09:10;;;;;;;7.20;6.60;;;19.50;99.90;;;;;;6328336;28;20260;-64
2023/06/05 14:12:14;;;;;;;7.30;6.70;;;19.40;99.90;;;;;;6327660;28;20226;-66
2023/06/05 14:15:18;;;;;;;8.47;7.00;;;19.40;99.90;;;;;;6326543;28;20229;-65
2023/06/05 14:18:25;;;;;;;6.53;6.03;;;19.40;99.90;;;;;;6327066;28;20308;-65
2023/06/05 14:21:28;;;;;;;7.77;7.17;;;19.30;99.90;;;;;;6326543;28;20236;-65
2023/06/05 14:24:32;;;;;;;8.10;7.40;;;19.30;99.90;;;;;;6326248;28;20236;-67
2023/06/05 14:27:36;;;;;;;7.30;6.70;;;19.30;99.90;;;;;;6325932;28;20363;-65
2023/06/05 14:30:39;;;;;;;7.73;7.13;;;19.30;99.90;;;;;;6325841;28;20259;-65
2023/06/05 14:33:43;;;;;;;7.63;7.00;;;19.20;99.90;;;;;;6325853;28;20231;-67
2023/06/05 14:36:50;;;;;;;7.73;7.00;;;19.20;99.90;;;;;;6324898;28;20301;-67
2023/06/05 14:39:53;;;;;;;7.10;6.60;;;19.30;99.90;;;;;;6336411;28;20245;-64
2023/06/05 14:42:57;;;;;;;8.70;7.83;;;19.40;99.90;;;;;;6339493;27;20360;-63
2023/06/05 14:46:00;;;;;;;7.73;7.13;;;19.50;99.90;;;;;;6325593;28;20222;-63
2023/06/05 14:49:06;;;;;;;7.17;6.67;;;19.40;99.90;;;;;;6325203;28;20222;-63
2023/06/05 14:52:09;;;;;;;7.90;7.30;;;19.40;99.90;;;;;;6325149;28;20226;-63
2023/06/05 14:55:12;;;;;;;7.30;6.70;;;19.40;99.90;;;;;;6325072;28;20749;-63
2023/06/05 14:58:16;;;;;;;7.63;7.10;;;19.40;99.90;;;;;;6324346;28;20225;-63
2023/06/05 15:01:19;;;;;;;7.70;7.10;;;19.30;99.90;;;;;;6325320;28;20240;-63
2023/06/05 15:04:25;;;;;;;8.60;7.77;;;19.30;99.90;;;;;;6325495;28;20249;-63
2023/06/05 15:07:37;;;;;;;7.80;7.17;;;19.30;99.90;;;;;;6324897;28;20655;-63
2023/06/05 15:10:40;;;;;;;7.70;7.10;;;19.30;99.90;;;;;;6324563;28;20275;-63
2023/06/05 15:13:44;;;;;;;7.67;6.97;;;19.40;99.90;;;;;;6324776;28;20226;-63
2023/06/05 15:16:47;;;;;;;8.70;7.83;;;19.40;99.90;;;;;;6321699;28;20648;-65
2023/06/05 15:19:52;;;;;;;6.90;6.30;;;19.50;99.90;;;;;;6324168;28;20222;-66
2023/06/05 15:22:55;;;;;;;8.40;7.60;;;19.50;99.90;;;;;;6323729;28;20235;-68
2023/06/05 15:26:01;;;;;;;8.20;7.60;;;19.50;99.90;;;;;;6325171;28;20685;-67
2023/06/05 15:29:04;;;;;;;8.90;6.40;;;19.50;99.90;;;;;;6328559;28;20226;-68
2023/06/05 15:32:08;;;;;;;8.53;7.80;;;19.60;99.90;;;;;;6329286;28;20368;-66
2023/06/05 15:35:27;;;;;;;7.67;7.00;;;19.50;99.90;;;;;;6326169;28;20233;-67
2023/06/05 15:38:30;;;;;;;7.67;7.07;;;19.40;99.90;;;;;;6325371;28;20222;-68
2023/06/05 15:41:33;;;;;;;8.23;7.63;;;19.40;99.90;;;;;;6323697;28;20940;-67
2023/06/05 15:44:38;;;;;;;8.30;6.87;;;19.50;99.90;;;;;;6323642;28;20731;-66
2023/06/05 15:47:41;;;;;;;8.00;7.30;;;19.50;99.90;;;;;;6324846;28;20281;-63
2023/06/05 15:50:46;;;;;;;7.33;6.73;;;19.50;99.90;;;;;;6324734;28;20232;-63
2023/06/05 15:53:49;;;;;;;7.83;7.23;;;19.40;99.90;;;;;;6324529;28;20210;-63
2023/06/05 15:57:09;;;;;;;7.40;6.80;;;19.50;99.90;;;;;;6324326;28;20238;-63
2023/06/05 16:00:13;;;;;;;7.20;6.67;;;19.50;99.90;;;;;;6324384;28;20692;-63
2023/06/05 16:03:17;;;;;;;8.03;7.30;;;19.50;99.90;;;;;;6330690;28;20226;-64
2023/06/05 16:06:22;;;;;;;7.43;6.93;;;19.40;99.90;;;;;;6349469;28;20715;-63